Terminal Aerodrome Forecast
Issued by NWS

Home | Current Version | Previous Version | Text Only | Print | Product List | Glossary On
Versions: 1 2 3 4 5 6 7 8 9 10 11 12 13 14 15 16 17
274
FTUS42 KFFC 220710 AAA
TAFFTY
TAF AMD
KFTY 220710Z 2207/2306 07006KT 6SM -RA BR BKN015
     FM220900 09005KT 5SM -RA BR OVC007
     FM221200 09005KT 3SM -RA BR OVC004
     FM221500 09008KT 5SM -RA BR OVC007
     FM221800 08006KT P6SM VCSH OVC012
     FM222100 08006KT P6SM BKN025
     FM230200 08004KT P6SM BKN015=

USA.gov is the U.S. government's official web portal to all federal, state and local government web resources and services.